sensor_id;sensor_type;location;lat;lon;timestamp;temperature;humidity
68924;DHT22;55961;52.156;20.942;2023-08-20T00:00:29;23.30;77.90
68924;DHT22;55961;52.156;20.942;2023-08-20T00:03:15;23.20;77.90
68924;DHT22;55961;52.156;20.942;2023-08-20T00:05:41;23.20;78.20
68924;DHT22;55961;52.156;20.942;2023-08-20T00:08:07;23.20;78.30
68924;DHT22;55961;52.156;20.942;2023-08-20T00:10:33;23.20;78.30
68924;DHT22;55961;52.156;20.942;2023-08-20T00:12:59;23.20;78.30
68924;DHT22;55961;52.156;20.942;2023-08-20T00:15:25;23.20;78.30
68924;DHT22;55961;52.156;20.942;2023-08-20T00:17:55;23.10;78.40
68924;DHT22;55961;52.156;20.942;2023-08-20T00:20:21;23.10;78.50
68924;DHT22;55961;52.156;20.942;2023-08-20T00:22:48;23.10;78.30
68924;DHT22;55961;52.156;20.942;2023-08-20T00:25:16;23.10;78.10
68924;DHT22;55961;52.156;20.942;2023-08-20T00:27:43;23.10;78.30
68924;DHT22;55961;52.156;20.942;2023-08-20T00:30:10;23.00;78.40
68924;DHT22;55961;52.156;20.942;2023-08-20T00:32:36;23.00;78.50
68924;DHT22;55961;52.156;20.942;2023-08-20T00:35:03;23.00;78.60
68924;DHT22;55961;52.156;20.942;2023-08-20T00:37:30;23.00;78.60
68924;DHT22;55961;52.156;20.942;2023-08-20T00:39:57;22.90;78.70
68924;DHT22;55961;52.156;20.942;2023-08-20T00:42:25;22.90;78.80
68924;DHT22;55961;52.156;20.942;2023-08-20T00:44:52;22.90;79.10
68924;DHT22;55961;52.156;20.942;2023-08-20T00:47:18;22.90;79.20
68924;DHT22;55961;52.156;20.942;2023-08-20T00:49:46;22.80;79.40
68924;DHT22;55961;52.156;20.942;2023-08-20T00:52:12;22.80;79.40
68924;DHT22;55961;52.156;20.942;2023-08-20T00:54:40;22.80;79.40
68924;DHT22;55961;52.156;20.942;2023-08-20T00:57:06;22.80;79.60
68924;DHT22;55961;52.156;20.942;2023-08-20T00:59:34;22.80;79.60
68924;DHT22;55961;52.156;20.942;2023-08-20T01:02:00;22.80;79.60
68924;DHT22;55961;52.156;20.942;2023-08-20T01:04:29;22.70;79.50
68924;DHT22;55961;52.156;20.942;2023-08-20T01:12:13;22.70;79.60
68924;DHT22;55961;52.156;20.942;2023-08-20T01:14:40;22.70;79.60
68924;DHT22;55961;52.156;20.942;2023-08-20T01:17:06;22.70;79.60
68924;DHT22;55961;52.156;20.942;2023-08-20T01:19:32;22.70;79.50
68924;DHT22;55961;52.156;20.942;2023-08-20T01:25:32;22.60;79.40
68924;DHT22;55961;52.156;20.942;2023-08-20T01:30:45;22.60;79.20
68924;DHT22;55961;52.156;20.942;2023-08-20T01:33:11;22.50;79.20
68924;DHT22;55961;52.156;20.942;2023-08-20T01:35:41;22.50;79.50
68924;DHT22;55961;52.156;20.942;2023-08-20T01:38:06;22.50;79.60
68924;DHT22;55961;52.156;20.942;2023-08-20T01:40:33;22.50;79.70
68924;DHT22;55961;52.156;20.942;2023-08-20T01:42:59;22.50;79.80
68924;DHT22;55961;52.156;20.942;2023-08-20T01:45:25;22.50;79.80
68924;DHT22;55961;52.156;20.942;2023-08-20T01:47:52;22.50;79.90
68924;DHT22;55961;52.156;20.942;2023-08-20T01:50:18;22.50;79.90
68924;DHT22;55961;52.156;20.942;2023-08-20T01:52:44;22.40;79.80
68924;DHT22;55961;52.156;20.942;2023-08-20T01:55:11;22.40;79.80
68924;DHT22;55961;52.156;20.942;2023-08-20T01:57:37;22.40;79.70
68924;DHT22;55961;52.156;20.942;2023-08-20T02:00:04;22.40;79.70
68924;DHT22;55961;52.156;20.942;2023-08-20T02:02:33;22.40;79.90
68924;DHT22;55961;52.156;20.942;2023-08-20T02:05:00;22.30;79.90
68924;DHT22;55961;52.156;20.942;2023-08-20T02:07:26;22.30;79.90
68924;DHT22;55961;52.156;20.942;2023-08-20T02:09:52;22.30;80.00
68924;DHT22;55961;52.156;20.942;2023-08-20T02:12:18;22.30;80.00
68924;DHT22;55961;52.156;20.942;2023-08-20T02:14:44;22.30;80.10
68924;DHT22;55961;52.156;20.942;2023-08-20T02:17:10;22.30;80.00
68924;DHT22;55961;52.156;20.942;2023-08-20T02:19:38;22.30;80.00
68924;DHT22;55961;52.156;20.942;2023-08-20T02:22:04;22.30;80.00
68924;DHT22;55961;52.156;20.942;2023-08-20T02:24:30;22.20;80.00
68924;DHT22;55961;52.156;20.942;2023-08-20T02:26:56;22.20;80.00
68924;DHT22;55961;52.156;20.942;2023-08-20T02:29:22;22.20;80.20
68924;DHT22;55961;52.156;20.942;2023-08-20T02:31:48;22.20;80.20
68924;DHT22;55961;52.156;20.942;2023-08-20T02:34:14;22.20;80.30
68924;DHT22;55961;52.156;20.942;2023-08-20T02:36:40;22.20;80.40
68924;DHT22;55961;52.156;20.942;2023-08-20T02:39:06;22.20;80.60
68924;DHT22;55961;52.156;20.942;2023-08-20T02:41:34;22.20;80.60
68924;DHT22;55961;52.156;20.942;2023-08-20T02:44:02;22.20;80.50
68924;DHT22;55961;52.156;20.942;2023-08-20T02:46:29;22.10;80.60
68924;DHT22;55961;52.156;20.942;2023-08-20T02:48:55;22.10;80.60
68924;DHT22;55961;52.156;20.942;2023-08-20T02:51:21;22.10;80.60
68924;DHT22;55961;52.156;20.942;2023-08-20T02:53:47;22.10;80.60
68924;DHT22;55961;52.156;20.942;2023-08-20T02:56:13;22.10;80.80
68924;DHT22;55961;52.156;20.942;2023-08-20T02:58:39;22.00;81.00
68924;DHT22;55961;52.156;20.942;2023-08-20T03:01:05;22.00;81.20
68924;DHT22;55961;52.156;20.942;2023-08-20T03:03:32;21.90;81.60
68924;DHT22;55961;52.156;20.942;2023-08-20T03:05:58;21.90;81.80
68924;DHT22;55961;52.156;20.942;2023-08-20T03:08:24;21.80;82.00
68924;DHT22;55961;52.156;20.942;2023-08-20T03:10:50;21.80;82.30
68924;DHT22;55961;52.156;20.942;2023-08-20T03:13:16;21.80;82.60
68924;DHT22;55961;52.156;20.942;2023-08-20T03:15:41;21.70;82.60
68924;DHT22;55961;52.156;20.942;2023-08-20T03:18:08;21.70;82.80
68924;DHT22;55961;52.156;20.942;2023-08-20T03:20:33;21.70;82.90
68924;DHT22;55961;52.156;20.942;2023-08-20T03:23:00;21.70;82.90
68924;DHT22;55961;52.156;20.942;2023-08-20T03:25:26;21.70;83.00
68924;DHT22;55961;52.156;20.942;2023-08-20T03:27:52;21.70;82.90
68924;DHT22;55961;52.156;20.942;2023-08-20T03:30:18;21.70;82.90
68924;DHT22;55961;52.156;20.942;2023-08-20T03:32:45;21.70;82.90
68924;DHT22;55961;52.156;20.942;2023-08-20T03:35:10;21.70;82.90
68924;DHT22;55961;52.156;20.942;2023-08-20T03:37:36;21.70;82.80
68924;DHT22;55961;52.156;20.942;2023-08-20T03:40:02;21.70;82.70
68924;DHT22;55961;52.156;20.942;2023-08-20T03:42:30;21.80;82.70
68924;DHT22;55961;52.156;20.942;2023-08-20T03:44:56;21.70;82.70
68924;DHT22;55961;52.156;20.942;2023-08-20T03:47:22;21.80;82.60
68924;DHT22;55961;52.156;20.942;2023-08-20T03:49:48;21.80;82.70
68924;DHT22;55961;52.156;20.942;2023-08-20T03:52:14;21.80;82.90
68924;DHT22;55961;52.156;20.942;2023-08-20T03:54:40;21.70;82.80
68924;DHT22;55961;52.156;20.942;2023-08-20T03:57:06;21.80;82.60
68924;DHT22;55961;52.156;20.942;2023-08-20T03:59:33;21.80;82.50
68924;DHT22;55961;52.156;20.942;2023-08-20T04:01:59;21.80;82.40
68924;DHT22;55961;52.156;20.942;2023-08-20T04:04:25;21.80;82.50
68924;DHT22;55961;52.156;20.942;2023-08-20T04:06:51;21.80;82.50
68924;DHT22;55961;52.156;20.942;2023-08-20T04:09:17;21.80;82.70
68924;DHT22;55961;52.156;20.942;2023-08-20T04:11:43;21.80;82.80
68924;DHT22;55961;52.156;20.942;2023-08-20T04:14:08;21.80;83.00
68924;DHT22;55961;52.156;20.942;2023-08-20T04:16:35;21.80;83.10
68924;DHT22;55961;52.156;20.942;2023-08-20T04:19:00;21.90;83.20
68924;DHT22;55961;52.156;20.942;2023-08-20T04:21:26;21.90;83.30
68924;DHT22;55961;52.156;20.942;2023-08-20T04:23:52;21.90;83.20
68924;DHT22;55961;52.156;20.942;2023-08-20T04:26:18;22.00;83.40
68924;DHT22;55961;52.156;20.942;2023-08-20T04:28:44;22.00;83.40
68924;DHT22;55961;52.156;20.942;2023-08-20T04:31:10;22.00;83.60
68924;DHT22;55961;52.156;20.942;2023-08-20T04:33:36;22.10;83.80
68924;DHT22;55961;52.156;20.942;2023-08-20T04:36:02;22.10;83.80
68924;DHT22;55961;52.156;20.942;2023-08-20T04:38:28;22.10;83.80
68924;DHT22;55961;52.156;20.942;2023-08-20T04:40:54;22.20;83.90
68924;DHT22;55961;52.156;20.942;2023-08-20T04:43:20;22.30;84.00
68924;DHT22;55961;52.156;20.942;2023-08-20T04:45:47;22.30;84.10
68924;DHT22;55961;52.156;20.942;2023-08-20T04:48:12;22.30;84.00
68924;DHT22;55961;52.156;20.942;2023-08-20T04:50:39;22.40;84.20
68924;DHT22;55961;52.156;20.942;2023-08-20T04:53:04;22.40;84.20
68924;DHT22;55961;52.156;20.942;2023-08-20T04:55:30;22.50;84.40
68924;DHT22;55961;52.156;20.942;2023-08-20T04:57:56;22.50;84.10
68924;DHT22;55961;52.156;20.942;2023-08-20T05:00:22;22.60;84.00
68924;DHT22;55961;52.156;20.942;2023-08-20T05:02:48;22.60;83.80
68924;DHT22;55961;52.156;20.942;2023-08-20T05:05:14;22.70;84.00
68924;DHT22;55961;52.156;20.942;2023-08-20T05:07:40;22.70;84.20
68924;DHT22;55961;52.156;20.942;2023-08-20T05:10:09;22.80;84.10
68924;DHT22;55961;52.156;20.942;2023-08-20T05:12:36;22.80;84.00
68924;DHT22;55961;52.156;20.942;2023-08-20T05:15:03;22.90;83.80
68924;DHT22;55961;52.156;20.942;2023-08-20T05:17:29;23.00;83.70
68924;DHT22;55961;52.156;20.942;2023-08-20T05:19:55;23.00;83.70
68924;DHT22;55961;52.156;20.942;2023-08-20T05:22:20;23.10;83.40
68924;DHT22;55961;52.156;20.942;2023-08-20T05:24:46;23.20;83.20
68924;DHT22;55961;52.156;20.942;2023-08-20T05:27:16;23.30;83.10
68924;DHT22;55961;52.156;20.942;2023-08-20T05:29:48;23.30;83.00
68924;DHT22;55961;52.156;20.942;2023-08-20T05:32:13;23.40;82.80
68924;DHT22;55961;52.156;20.942;2023-08-20T05:34:40;23.50;82.40
68924;DHT22;55961;52.156;20.942;2023-08-20T05:37:06;23.60;82.30
68924;DHT22;55961;52.156;20.942;2023-08-20T05:39:42;23.70;82.40
68924;DHT22;55961;52.156;20.942;2023-08-20T05:42:09;23.80;81.90
68924;DHT22;55961;52.156;20.942;2023-08-20T05:44:36;23.90;81.70
68924;DHT22;55961;52.156;20.942;2023-08-20T05:47:02;24.00;81.60
68924;DHT22;55961;52.156;20.942;2023-08-20T05:49:31;24.10;80.70
68924;DHT22;55961;52.156;20.942;2023-08-20T05:51:56;24.20;80.20
68924;DHT22;55961;52.156;20.942;2023-08-20T05:54:22;24.30;80.00
68924;DHT22;55961;52.156;20.942;2023-08-20T05:56:48;24.40;79.60
68924;DHT22;55961;52.156;20.942;2023-08-20T05:59:14;24.50;79.30
68924;DHT22;55961;52.156;20.942;2023-08-20T06:01:40;24.60;79.20
68924;DHT22;55961;52.156;20.942;2023-08-20T06:04:09;24.70;79.30
68924;DHT22;55961;52.156;20.942;2023-08-20T06:06:35;24.80;78.80
68924;DHT22;55961;52.156;20.942;2023-08-20T06:09:03;24.90;78.20
68924;DHT22;55961;52.156;20.942;2023-08-20T06:11:29;24.90;77.60
68924;DHT22;55961;52.156;20.942;2023-08-20T06:13:55;25.10;77.40
68924;DHT22;55961;52.156;20.942;2023-08-20T06:16:21;25.10;77.20
68924;DHT22;55961;52.156;20.942;2023-08-20T06:18:50;25.20;77.30
68924;DHT22;55961;52.156;20.942;2023-08-20T06:21:15;25.40;77.20
68924;DHT22;55961;52.156;20.942;2023-08-20T06:23:42;25.50;76.80
68924;DHT22;55961;52.156;20.942;2023-08-20T06:26:08;25.60;76.70
68924;DHT22;55961;52.156;20.942;2023-08-20T06:28:34;25.70;76.60
68924;DHT22;55961;52.156;20.942;2023-08-20T06:30:59;25.90;76.30
68924;DHT22;55961;52.156;20.942;2023-08-20T06:33:25;26.00;76.20
68924;DHT22;55961;52.156;20.942;2023-08-20T06:35:51;26.20;75.60
68924;DHT22;55961;52.156;20.942;2023-08-20T06:38:17;26.30;75.10
68924;DHT22;55961;52.156;20.942;2023-08-20T06:40:43;26.40;74.20
68924;DHT22;55961;52.156;20.942;2023-08-20T06:43:09;26.60;73.60
68924;DHT22;55961;52.156;20.942;2023-08-20T06:45:35;26.70;72.70
68924;DHT22;55961;52.156;20.942;2023-08-20T06:48:01;26.80;72.00
68924;DHT22;55961;52.156;20.942;2023-08-20T06:50:27;27.00;71.50
68924;DHT22;55961;52.156;20.942;2023-08-20T06:52:53;27.10;71.10
68924;DHT22;55961;52.156;20.942;2023-08-20T06:55:18;27.20;71.10
68924;DHT22;55961;52.156;20.942;2023-08-20T06:57:44;27.40;70.40
68924;DHT22;55961;52.156;20.942;2023-08-20T07:00:13;27.60;69.60
68924;DHT22;55961;52.156;20.942;2023-08-20T07:02:39;27.70;69.00
68924;DHT22;55961;52.156;20.942;2023-08-20T07:05:05;27.80;67.80
68924;DHT22;55961;52.156;20.942;2023-08-20T07:07:31;28.00;67.00
68924;DHT22;55961;52.156;20.942;2023-08-20T07:09:57;28.10;66.80
68924;DHT22;55961;52.156;20.942;2023-08-20T07:12:23;28.20;66.90
68924;DHT22;55961;52.156;20.942;2023-08-20T07:14:49;28.30;66.70
68924;DHT22;55961;52.156;20.942;2023-08-20T07:17:15;28.50;65.80
68924;DHT22;55961;52.156;20.942;2023-08-20T07:19:41;28.60;65.40
68924;DHT22;55961;52.156;20.942;2023-08-20T07:22:07;28.80;66.10
68924;DHT22;55961;52.156;20.942;2023-08-20T07:24:32;28.90;65.40
68924;DHT22;55961;52.156;20.942;2023-08-20T07:27:01;29.00;64.10
68924;DHT22;55961;52.156;20.942;2023-08-20T07:29:29;29.20;63.70
68924;DHT22;55961;52.156;20.942;2023-08-20T07:31:56;29.30;62.90
68924;DHT22;55961;52.156;20.942;2023-08-20T07:34:22;29.50;62.00
68924;DHT22;55961;52.156;20.942;2023-08-20T07:36:49;29.60;61.80
68924;DHT22;55961;52.156;20.942;2023-08-20T07:39:14;29.70;61.90
68924;DHT22;55961;52.156;20.942;2023-08-20T07:41:42;29.80;61.20
68924;DHT22;55961;52.156;20.942;2023-08-20T07:44:07;30.00;61.50
68924;DHT22;55961;52.156;20.942;2023-08-20T07:46:33;30.10;60.70
68924;DHT22;55961;52.156;20.942;2023-08-20T07:48:59;30.20;60.60
68924;DHT22;55961;52.156;20.942;2023-08-20T07:51:25;30.40;59.10
68924;DHT22;55961;52.156;20.942;2023-08-20T07:53:51;30.50;57.90
68924;DHT22;55961;52.156;20.942;2023-08-20T07:56:17;30.50;57.40
68924;DHT22;55961;52.156;20.942;2023-08-20T07:58:43;30.60;57.90
68924;DHT22;55961;52.156;20.942;2023-08-20T08:01:09;30.70;58.20
68924;DHT22;55961;52.156;20.942;2023-08-20T08:03:35;30.80;58.50
68924;DHT22;55961;52.156;20.942;2023-08-20T08:06:01;30.90;58.30
68924;DHT22;55961;52.156;20.942;2023-08-20T08:08:27;31.10;57.60
68924;DHT22;55961;52.156;20.942;2023-08-20T08:10:53;31.20;56.60
68924;DHT22;55961;52.156;20.942;2023-08-20T08:13:20;31.20;56.00
68924;DHT22;55961;52.156;20.942;2023-08-20T08:15:47;31.30;56.80
68924;DHT22;55961;52.156;20.942;2023-08-20T08:18:13;31.40;56.90
68924;DHT22;55961;52.156;20.942;2023-08-20T08:20:39;31.40;56.30
68924;DHT22;55961;52.156;20.942;2023-08-20T08:23:05;31.60;57.00
68924;DHT22;55961;52.156;20.942;2023-08-20T08:25:31;31.70;56.30
68924;DHT22;55961;52.156;20.942;2023-08-20T08:27:57;31.70;54.40
68924;DHT22;55961;52.156;20.942;2023-08-20T08:30:23;31.90;54.40
68924;DHT22;55961;52.156;20.942;2023-08-20T08:32:49;32.00;54.50
68924;DHT22;55961;52.156;20.942;2023-08-20T08:35:16;32.10;54.50
68924;DHT22;55961;52.156;20.942;2023-08-20T08:37:42;32.20;53.30
68924;DHT22;55961;52.156;20.942;2023-08-20T08:40:08;32.30;53.20
68924;DHT22;55961;52.156;20.942;2023-08-20T08:42:34;32.40;53.60
68924;DHT22;55961;52.156;20.942;2023-08-20T08:45:01;32.50;52.70
68924;DHT22;55961;52.156;20.942;2023-08-20T08:47:28;32.60;52.30
68924;DHT22;55961;52.156;20.942;2023-08-20T08:49:55;32.60;51.40
68924;DHT22;55961;52.156;20.942;2023-08-20T08:52:25;32.60;52.30
68924;DHT22;55961;52.156;20.942;2023-08-20T08:54:52;32.70;51.80
68924;DHT22;55961;52.156;20.942;2023-08-20T08:57:19;32.80;51.80
68924;DHT22;55961;52.156;20.942;2023-08-20T08:59:45;33.00;51.40
68924;DHT22;55961;52.156;20.942;2023-08-20T09:02:12;33.10;50.60
68924;DHT22;55961;52.156;20.942;2023-08-20T09:04:39;33.20;50.30
68924;DHT22;55961;52.156;20.942;2023-08-20T09:07:14;33.30;49.80
68924;DHT22;55961;52.156;20.942;2023-08-20T09:09:44;33.40;49.10
68924;DHT22;55961;52.156;20.942;2023-08-20T09:12:18;33.40;48.50
68924;DHT22;55961;52.156;20.942;2023-08-20T09:14:54;33.40;49.10
68924;DHT22;55961;52.156;20.942;2023-08-20T09:17:25;33.50;49.10
68924;DHT22;55961;52.156;20.942;2023-08-20T09:19:54;33.60;48.80
68924;DHT22;55961;52.156;20.942;2023-08-20T09:22:22;33.70;49.10
68924;DHT22;55961;52.156;20.942;2023-08-20T09:24:55;33.90;48.50
68924;DHT22;55961;52.156;20.942;2023-08-20T09:27:22;33.90;48.60
68924;DHT22;55961;52.156;20.942;2023-08-20T09:29:54;34.00;48.70
68924;DHT22;55961;52.156;20.942;2023-08-20T09:32:22;34.20;48.80
68924;DHT22;55961;52.156;20.942;2023-08-20T09:34:49;34.30;48.70
68924;DHT22;55961;52.156;20.942;2023-08-20T09:37:17;34.40;49.40
68924;DHT22;55961;52.156;20.942;2023-08-20T09:39:44;34.50;47.90
68924;DHT22;55961;52.156;20.942;2023-08-20T09:42:11;34.50;47.70
68924;DHT22;55961;52.156;20.942;2023-08-20T09:44:39;34.60;48.10
68924;DHT22;55961;52.156;20.942;2023-08-20T09:49:43;34.60;46.60
68924;DHT22;55961;52.156;20.942;2023-08-20T09:52:11;34.50;47.10
68924;DHT22;55961;52.156;20.942;2023-08-20T09:57:33;34.60;46.40
68924;DHT22;55961;52.156;20.942;2023-08-20T10:00:01;34.60;46.50
68924;DHT22;55961;52.156;20.942;2023-08-20T10:02:28;34.70;46.50
68924;DHT22;55961;52.156;20.942;2023-08-20T10:04:56;34.90;45.50
68924;DHT22;55961;52.156;20.942;2023-08-20T10:07:23;34.90;45.60
68924;DHT22;55961;52.156;20.942;2023-08-20T10:09:50;35.00;45.70
68924;DHT22;55961;52.156;20.942;2023-08-20T10:12:18;35.20;45.30
68924;DHT22;55961;52.156;20.942;2023-08-20T10:14:44;35.30;45.40
68924;DHT22;55961;52.156;20.942;2023-08-20T10:17:12;35.40;44.60
68924;DHT22;55961;52.156;20.942;2023-08-20T10:19:38;35.60;44.10
68924;DHT22;55961;52.156;20.942;2023-08-20T10:22:07;35.70;44.00
68924;DHT22;55961;52.156;20.942;2023-08-20T10:24:52;35.80;43.30
68924;DHT22;55961;52.156;20.942;2023-08-20T10:27:32;35.80;42.60
68924;DHT22;55961;52.156;20.942;2023-08-20T10:29:59;35.80;42.50
68924;DHT22;55961;52.156;20.942;2023-08-20T10:32:54;35.70;42.20
68924;DHT22;55961;52.156;20.942;2023-08-20T10:35:46;35.70;43.10
68924;DHT22;55961;52.156;20.942;2023-08-20T10:38:13;35.80;43.50
68924;DHT22;55961;52.156;20.942;2023-08-20T10:40:57;35.90;43.50
68924;DHT22;55961;52.156;20.942;2023-08-20T10:43:37;36.00;43.80
68924;DHT22;55961;52.156;20.942;2023-08-20T10:48:33;36.30;43.20
68924;DHT22;55961;52.156;20.942;2023-08-20T10:53:33;36.50;42.40
68924;DHT22;55961;52.156;20.942;2023-08-20T10:56:15;36.50;41.40
68924;DHT22;55961;52.156;20.942;2023-08-20T10:58:42;36.40;42.80
68924;DHT22;55961;52.156;20.942;2023-08-20T11:01:13;36.50;41.80
68924;DHT22;55961;52.156;20.942;2023-08-20T11:03:39;36.50;42.70
68924;DHT22;55961;52.156;20.942;2023-08-20T11:06:06;36.60;42.60
68924;DHT22;55961;52.156;20.942;2023-08-20T11:08:32;36.60;41.80
68924;DHT22;55961;52.156;20.942;2023-08-20T11:10:59;36.70;41.30
68924;DHT22;55961;52.156;20.942;2023-08-20T11:13:25;36.70;41.40
68924;DHT22;55961;52.156;20.942;2023-08-20T11:15:51;36.80;41.70
68924;DHT22;55961;52.156;20.942;2023-08-20T11:18:17;36.90;41.50
68924;DHT22;55961;52.156;20.942;2023-08-20T11:20:44;36.90;42.00
68924;DHT22;55961;52.156;20.942;2023-08-20T11:23:10;36.90;41.70
68924;DHT22;55961;52.156;20.942;2023-08-20T11:25:41;36.90;41.40
68924;DHT22;55961;52.156;20.942;2023-08-20T11:28:08;36.80;41.20
68924;DHT22;55961;52.156;20.942;2023-08-20T11:30:34;36.70;41.50
68924;DHT22;55961;52.156;20.942;2023-08-20T11:33:00;36.60;41.90
68924;DHT22;55961;52.156;20.942;2023-08-20T11:35:26;36.60;41.60
68924;DHT22;55961;52.156;20.942;2023-08-20T11:37:52;36.50;41.70
68924;DHT22;55961;52.156;20.942;2023-08-20T11:40:22;36.50;42.00
68924;DHT22;55961;52.156;20.942;2023-08-20T11:42:48;36.40;42.60
68924;DHT22;55961;52.156;20.942;2023-08-20T11:45:14;36.40;41.90
68924;DHT22;55961;52.156;20.942;2023-08-20T11:47:42;36.40;41.80
68924;DHT22;55961;52.156;20.942;2023-08-20T11:50:09;36.50;42.60
68924;DHT22;55961;52.156;20.942;2023-08-20T11:52:36;36.50;40.70
68924;DHT22;55961;52.156;20.942;2023-08-20T11:55:03;36.50;40.90
68924;DHT22;55961;52.156;20.942;2023-08-20T11:57:31;36.50;40.60
68924;DHT22;55961;52.156;20.942;2023-08-20T12:00:02;36.50;41.40
68924;DHT22;55961;52.156;20.942;2023-08-20T12:02:30;36.60;40.50
68924;DHT22;55961;52.156;20.942;2023-08-20T12:04:56;36.60;40.50
68924;DHT22;55961;52.156;20.942;2023-08-20T12:07:27;36.70;40.30
68924;DHT22;55961;52.156;20.942;2023-08-20T12:09:54;36.70;40.30
68924;DHT22;55961;52.156;20.942;2023-08-20T12:12:21;36.80;40.60
68924;DHT22;55961;52.156;20.942;2023-08-20T12:14:48;36.80;40.90
68924;DHT22;55961;52.156;20.942;2023-08-20T12:17:20;36.80;40.40
68924;DHT22;55961;52.156;20.942;2023-08-20T12:19:47;36.90;41.20
68924;DHT22;55961;52.156;20.942;2023-08-20T12:22:12;36.90;40.80
68924;DHT22;55961;52.156;20.942;2023-08-20T12:24:39;36.90;40.10
68924;DHT22;55961;52.156;20.942;2023-08-20T12:27:04;36.90;39.00
68924;DHT22;55961;52.156;20.942;2023-08-20T12:29:31;36.80;39.20
68924;DHT22;55961;52.156;20.942;2023-08-20T12:31:56;36.70;40.30
68924;DHT22;55961;52.156;20.942;2023-08-20T12:34:23;36.70;39.50
68924;DHT22;55961;52.156;20.942;2023-08-20T12:36:50;36.70;40.50
68924;DHT22;55961;52.156;20.942;2023-08-20T12:39:16;36.80;40.40
68924;DHT22;55961;52.156;20.942;2023-08-20T12:41:42;36.80;39.80
68924;DHT22;55961;52.156;20.942;2023-08-20T12:44:09;36.70;40.70
68924;DHT22;55961;52.156;20.942;2023-08-20T12:46:35;36.70;39.60
68924;DHT22;55961;52.156;20.942;2023-08-20T12:49:01;36.70;39.90
68924;DHT22;55961;52.156;20.942;2023-08-20T12:51:27;36.70;40.30
68924;DHT22;55961;52.156;20.942;2023-08-20T12:53:53;36.70;40.00
68924;DHT22;55961;52.156;20.942;2023-08-20T12:56:19;36.70;40.30
68924;DHT22;55961;52.156;20.942;2023-08-20T12:58:45;36.70;40.40
68924;DHT22;55961;52.156;20.942;2023-08-20T13:01:11;36.70;40.60
68924;DHT22;55961;52.156;20.942;2023-08-20T13:03:37;36.80;39.40
68924;DHT22;55961;52.156;20.942;2023-08-20T13:06:04;36.80;40.30
68924;DHT22;55961;52.156;20.942;2023-08-20T13:08:30;36.80;40.20
68924;DHT22;55961;52.156;20.942;2023-08-20T13:10:58;36.80;40.60
68924;DHT22;55961;52.156;20.942;2023-08-20T13:13:24;36.80;40.20
68924;DHT22;55961;52.156;20.942;2023-08-20T13:15:51;36.80;40.70
68924;DHT22;55961;52.156;20.942;2023-08-20T13:18:18;36.80;40.00
68924;DHT22;55961;52.156;20.942;2023-08-20T13:20:44;36.70;40.50
68924;DHT22;55961;52.156;20.942;2023-08-20T13:23:10;36.70;40.50
68924;DHT22;55961;52.156;20.942;2023-08-20T13:25:36;36.70;40.90
68924;DHT22;55961;52.156;20.942;2023-08-20T13:28:02;36.80;40.70
68924;DHT22;55961;52.156;20.942;2023-08-20T13:30:29;36.80;40.00
68924;DHT22;55961;52.156;20.942;2023-08-20T13:32:56;36.70;39.80
68924;DHT22;55961;52.156;20.942;2023-08-20T13:35:22;36.70;40.80
68924;DHT22;55961;52.156;20.942;2023-08-20T13:37:48;36.70;41.50
68924;DHT22;55961;52.156;20.942;2023-08-20T13:40:14;36.70;40.80
68924;DHT22;55961;52.156;20.942;2023-08-20T13:42:40;36.70;41.00
68924;DHT22;55961;52.156;20.942;2023-08-20T13:45:07;36.70;40.60
68924;DHT22;55961;52.156;20.942;2023-08-20T13:47:33;36.70;41.30
68924;DHT22;55961;52.156;20.942;2023-08-20T13:49:59;36.70;40.80
68924;DHT22;55961;52.156;20.942;2023-08-20T13:52:25;36.70;40.90
68924;DHT22;55961;52.156;20.942;2023-08-20T13:54:51;36.70;41.20
68924;DHT22;55961;52.156;20.942;2023-08-20T13:57:17;36.70;41.50
68924;DHT22;55961;52.156;20.942;2023-08-20T13:59:43;36.70;41.10
68924;DHT22;55961;52.156;20.942;2023-08-20T14:02:09;36.70;40.10
68924;DHT22;55961;52.156;20.942;2023-08-20T14:04:35;36.60;40.20
68924;DHT22;55961;52.156;20.942;2023-08-20T14:07:01;36.50;40.20
68924;DHT22;55961;52.156;20.942;2023-08-20T14:09:27;36.40;40.80
68924;DHT22;55961;52.156;20.942;2023-08-20T14:11:58;36.30;41.00
68924;DHT22;55961;52.156;20.942;2023-08-20T14:14:25;36.20;41.70
68924;DHT22;55961;52.156;20.942;2023-08-20T14:16:51;36.10;42.40
68924;DHT22;55961;52.156;20.942;2023-08-20T14:19:17;36.10;41.50
68924;DHT22;55961;52.156;20.942;2023-08-20T14:21:43;36.00;42.10
68924;DHT22;55961;52.156;20.942;2023-08-20T14:24:09;36.00;41.60
68924;DHT22;55961;52.156;20.942;2023-08-20T14:26:35;36.00;41.00
68924;DHT22;55961;52.156;20.942;2023-08-20T14:29:01;36.00;41.90
68924;DHT22;55961;52.156;20.942;2023-08-20T14:31:27;36.10;41.20
68924;DHT22;55961;52.156;20.942;2023-08-20T14:33:54;36.10;41.30
68924;DHT22;55961;52.156;20.942;2023-08-20T14:36:20;36.10;41.20
68924;DHT22;55961;52.156;20.942;2023-08-20T14:38:46;36.10;40.70
68924;DHT22;55961;52.156;20.942;2023-08-20T14:41:12;36.00;41.10
68924;DHT22;55961;52.156;20.942;2023-08-20T14:43:38;36.00;41.00
68924;DHT22;55961;52.156;20.942;2023-08-20T14:46:04;36.00;41.10
68924;DHT22;55961;52.156;20.942;2023-08-20T14:48:32;36.00;41.20
68924;DHT22;55961;52.156;20.942;2023-08-20T14:51:01;36.10;40.80
68924;DHT22;55961;52.156;20.942;2023-08-20T14:53:26;36.10;40.60
68924;DHT22;55961;52.156;20.942;2023-08-20T14:55:53;36.00;41.10
68924;DHT22;55961;52.156;20.942;2023-08-20T14:58:19;36.10;41.00
68924;DHT22;55961;52.156;20.942;2023-08-20T15:00:45;36.00;40.00
68924;DHT22;55961;52.156;20.942;2023-08-20T15:03:13;35.90;40.50
68924;DHT22;55961;52.156;20.942;2023-08-20T15:05:39;35.80;41.30
68924;DHT22;55961;52.156;20.942;2023-08-20T15:08:05;35.80;41.10
68924;DHT22;55961;52.156;20.942;2023-08-20T15:10:31;35.80;41.00
68924;DHT22;55961;52.156;20.942;2023-08-20T15:12:57;35.80;40.40
68924;DHT22;55961;52.156;20.942;2023-08-20T15:15:23;35.70;40.60
68924;DHT22;55961;52.156;20.942;2023-08-20T15:17:49;35.70;40.50
68924;DHT22;55961;52.156;20.942;2023-08-20T15:20:17;35.70;41.40
68924;DHT22;55961;52.156;20.942;2023-08-20T15:22:43;35.70;41.50
68924;DHT22;55961;52.156;20.942;2023-08-20T15:25:09;35.70;41.40
68924;DHT22;55961;52.156;20.942;2023-08-20T15:27:37;35.70;41.50
68924;DHT22;55961;52.156;20.942;2023-08-20T15:30:04;35.60;41.10
68924;DHT22;55961;52.156;20.942;2023-08-20T15:32:30;35.60;41.00
68924;DHT22;55961;52.156;20.942;2023-08-20T15:34:57;35.50;41.30